Glace Bay, Canada
Current Conditions -  °F | °C
As of 6:00 AM on Thursday 23 Oct 2014 (Local Time) from CYQY Reporting Station
Broken Clouds Broken Clouds  
Wind Chill: 50°   Ceiling: 1900
Heat Index: 50°   Visibility: 15mi
Dew Point: 45°   Wind: 12mph
Humidity: 82%   Direction: 90°E
Pressure: 30.28"   Gusts: NA
Location:  46.2°N, 59.96°W
Report Text: CYQY 230900Z 09010KT 15SM BKN019 BKN160 BKN210 10/07 A3028 RMK SC5AC1CI1 SLP253
Loading
Personal Weather Stations






























Interactive Weather Map
Tropical Storm Tracking
New forecast layout! Learn more

10-Day Weather Forecast

Advertisements
Track Severe Weather on mobile